Time;durP1;ratioP1;P1;durP2;ratioP2;P2;SDS_P1;SDS_P2;PMS_P1;PMS_P2;Temp;Humidity;BMP_temperature;BMP_pressure;BME280_temperature;BME280_humidity;BME280_pressure;Samples;Min_cycle;Max_cycle;Signal;HPM_P1;HPM_P2
2022/12/15 00:40:37;;;;;;;10.77;7.45;;;0.40;51.50;;;;;;5024243;28;20048;-77
2022/12/15 00:43:22;;;;;;;9.77;7.57;;;0.40;51.50;;;;;;5027314;28;20087;-77
2022/12/15 01:22:54;;;;;;;10.55;8.30;;;-0.10;51.10;;;;;;5033519;28;20498;-77
2022/12/15 01:25:38;;;;;;;11.50;8.85;;;-0.10;51.10;;;;;;5033500;28;20091;-77
2022/12/15 01:28:23;;;;;;;12.90;8.45;;;-0.10;51.20;;;;;;5032138;28;20523;-77
2022/12/15 01:31:10;;;;;;;12.43;7.57;;;-0.10;51.20;;;;;;5030665;28;20052;-76
2022/12/15 01:33:54;;;;;;;11.00;8.70;;;-0.10;51.20;;;;;;5025543;28;20045;-77
2022/12/15 01:36:39;;;;;;;13.00;7.43;;;-0.20;51.00;;;;;;5015665;28;20408;-77
2022/12/15 01:39:23;;;;;;;8.40;7.00;;;-0.10;51.80;;;;;;5033143;28;20617;-77
2022/12/15 01:42:12;;;;;;;12.85;7.93;;;-0.20;51.00;;;;;;5030221;28;20056;-76
2022/12/15 01:45:27;;;;;;;9.77;7.43;;;-0.20;51.00;;;;;;5023003;28;20188;-76
2022/12/15 01:48:16;;;;;;;8.35;7.03;;;-0.20;51.00;;;;;;5019710;28;20060;-76
2022/12/15 01:51:25;;;;;;;10.75;8.05;;;-0.20;51.00;;;;;;5016414;28;20489;-76
2022/12/15 01:54:13;;;;;;;11.68;7.68;;;-0.20;51.00;;;;;;5017743;28;20045;-76
2022/12/15 01:57:03;;;;;;;11.45;8.60;;;-0.20;51.00;;;;;;4991983;28;20072;-77
2022/12/15 01:59:52;;;;;;;12.10;7.60;;;-0.30;50.80;;;;;;5032011;28;20040;-77
2022/12/15 02:02:37;;;;;;;10.95;8.73;;;-0.30;50.90;;;;;;5012238;28;20069;-76
2022/12/15 02:05:22;;;;;;;12.65;8.38;;;-0.30;50.90;;;;;;5009921;28;20109;-76
2022/12/15 02:08:08;;;;;;;12.38;8.18;;;-0.30;51.00;;;;;;5029123;28;20045;-76
2022/12/15 02:11:36;;;;;;;12.75;8.80;;;-0.40;50.80;;;;;;5018007;28;20040;-77
2022/12/15 02:14:46;;;;;;;14.73;9.00;;;-0.40;50.80;;;;;;4940721;28;20182;-76
2022/12/15 02:18:02;;;;;;;11.60;9.00;;;-0.50;50.70;;;;;;5024691;28;20040;-77
2022/12/15 02:20:55;;;;;;;13.85;8.80;;;-0.50;50.70;;;;;;5032063;28;20099;-77
2022/12/15 02:23:58;;;;;;;15.20;9.60;;;-0.50;50.70;;;;;;5018476;28;20406;-78
2022/12/15 02:26:58;;;;;;;13.13;8.52;;;-0.50;50.70;;;;;;5023818;28;20092;-77
2022/12/15 02:30:03;;;;;;;12.27;8.27;;;-0.60;50.60;;;;;;5019751;28;20040;-77
2022/12/15 02:33:26;;;;;;;17.45;9.52;;;-0.60;50.60;;;;;;5023492;28;20040;-77
2022/12/15 02:36:25;;;;;;;11.68;9.02;;;-0.60;50.60;;;;;;5018618;28;20064;-77
2022/12/15 02:39:13;;;;;;;12.48;8.77;;;-0.60;50.60;;;;;;5021137;28;20412;-77
2022/12/15 02:41:58;;;;;;;12.43;9.57;;;-0.70;50.40;;;;;;5032357;28;20096;-77
2022/12/15 02:44:42;;;;;;;12.85;9.45;;;-0.70;50.50;;;;;;5033111;28;20388;-77
2022/12/15 02:47:45;;;;;;;12.57;8.77;;;-0.80;50.30;;;;;;5033463;28;20083;-77
2022/12/15 02:50:45;;;;;;;15.23;9.52;;;-0.80;50.30;;;;;;5022423;28;20040;-77
2022/12/15 02:53:35;;;;;;;12.10;9.15;;;-0.80;50.40;;;;;;5035126;28;20123;-77
2022/12/15 02:56:35;;;;;;;11.10;8.63;;;-0.80;50.40;;;;;;5032877;28;20153;-77
2022/12/15 02:59:30;;;;;;;11.98;9.15;;;-0.90;50.20;;;;;;5026357;28;20037;-77
2022/12/15 03:02:15;;;;;;;13.18;8.88;;;-0.90;50.30;;;;;;5027945;28;20072;-77
2022/12/15 03:05:00;;;;;;;12.93;8.85;;;-0.90;50.30;;;;;;5022153;28;20091;-76
2022/12/15 03:07:44;;;;;;;11.65;8.48;;;-1.00;50.10;;;;;;5035586;28;20096;-77
2022/12/15 03:10:29;;;;;;;17.30;10.65;;;-1.00;50.10;;;;;;5034675;28;20136;-77
2022/12/15 03:13:14;;;;;;;10.88;8.30;;;-1.00;50.70;;;;;;5031082;28;20047;-75
2022/12/15 03:15:59;;;;;;;13.65;9.68;;;-1.00;50.20;;;;;;5033732;28;20055;-77
2022/12/15 03:18:44;;;;;;;10.63;8.70;;;-1.10;50.00;;;;;;5031581;28;20064;-76
2022/12/15 03:21:28;;;;;;;12.13;9.63;;;-1.10;50.00;;;;;;5040795;28;20410;-77
2022/12/15 03:24:13;;;;;;;12.68;9.00;;;-1.10;50.00;;;;;;5034524;28;20044;-77
2022/12/15 03:26:58;;;;;;;13.70;9.10;;;-1.10;50.00;;;;;;5027975;28;20115;-77
2022/12/15 03:29:42;;;;;;;11.38;9.20;;;-1.10;50.00;;;;;;5022000;28;20084;-77
2022/12/15 03:32:28;;;;;;;14.10;9.90;;;-1.10;50.00;;;;;;4992688;28;20053;-77
2022/12/15 03:35:13;;;;;;;14.85;9.98;;;-1.20;49.80;;;;;;5027874;28;20048;-76
2022/12/15 03:37:57;;;;;;;10.70;8.85;;;-1.20;49.90;;;;;;5032078;28;20405;-76
2022/12/15 03:40:42;;;;;;;13.20;8.65;;;-1.20;49.90;;;;;;5014455;28;20052;-76
2022/12/15 03:43:26;;;;;;;11.13;8.50;;;-1.30;49.70;;;;;;5042010;28;20084;-76
2022/12/15 03:46:11;;;;;;;13.85;9.23;;;-1.30;49.70;;;;;;5032009;28;20350;-76
2022/12/15 03:48:56;;;;;;;13.82;8.98;;;-1.30;49.70;;;;;;5013299;28;20084;-77
2022/12/15 03:51:40;;;;;;;13.88;8.82;;;-1.30;49.70;;;;;;5028953;28;20118;-77
2022/12/15 03:54:25;;;;;;;13.93;9.13;;;-1.30;49.80;;;;;;5033343;28;20612;-77
2022/12/15 03:57:09;;;;;;;11.00;8.95;;;-1.30;49.70;;;;;;5016598;28;20542;-77
2022/12/15 03:59:55;;;;;;;12.18;9.43;;;-1.30;49.80;;;;;;5029340;28;20135;-77
2022/12/15 04:02:41;;;;;;;12.20;8.52;;;-1.30;49.70;;;;;;5028111;28;20076;-76
2022/12/15 04:05:32;;;;;;;11.13;8.38;;;-1.40;49.60;;;;;;5032630;28;20056;-77
2022/12/15 04:08:16;;;;;;;10.27;8.40;;;-1.40;49.60;;;;;;5023401;28;20462;-77
2022/12/15 04:11:01;;;;;;;11.18;8.30;;;-1.40;49.60;;;;;;5030664;28;20366;-77
2022/12/15 04:13:46;;;;;;;13.50;8.75;;;-1.40;49.60;;;;;;5023240;28;20052;-76
2022/12/15 04:16:30;;;;;;;10.68;7.85;;;-1.40;49.60;;;;;;5028821;28;20036;-76
2022/12/15 04:22:18;;;;;;;10.80;7.72;;;-1.50;49.40;;;;;;5023762;28;20048;-77
2022/12/15 05:32:23;;;;;;;;;;;-2.00;49.30;;;;;;5033961;28;20099;-78
2022/12/15 05:35:07;;;;;;;11.80;6.45;;;-2.00;48.80;;;;;;5039230;28;19987;-76
2022/12/15 05:37:52;;;;;;;11.45;7.45;;;-2.00;48.70;;;;;;5032807;28;20055;-76
2022/12/15 05:40:36;;;;;;;8.93;6.47;;;-2.00;48.70;;;;;;5020527;28;20152;-77
2022/12/15 05:43:21;;;;;;;10.93;7.00;;;-2.10;48.60;;;;;;5030461;28;20075;-78
2022/12/15 05:46:06;;;;;;;7.93;6.10;;;-2.10;48.60;;;;;;5039988;28;20060;-77
2022/12/15 05:48:50;;;;;;;7.70;6.78;;;-2.10;48.60;;;;;;5018231;28;20099;-77
2022/12/15 05:51:37;;;;;;;9.48;7.03;;;-2.10;48.60;;;;;;5031184;28;20555;-77
2022/12/15 05:54:22;;;;;;;6.50;5.45;;;-2.10;48.60;;;;;;5032055;28;20044;-77
2022/12/15 05:57:06;;;;;;;8.85;5.97;;;-2.10;48.70;;;;;;5029149;28;20077;-78
2022/12/15 05:59:51;;;;;;;8.90;6.63;;;-2.20;48.40;;;;;;5039800;28;20635;-78
2022/12/15 06:02:36;;;;;;;10.88;6.93;;;-2.20;48.40;;;;;;5031076;28;20048;-78
2022/12/15 06:05:20;;;;;;;9.68;6.45;;;-2.20;48.40;;;;;;5023139;28;20044;-79
2022/12/15 06:08:05;;;;;;;10.00;6.70;;;-2.20;48.40;;;;;;5030763;28;20527;-77
2022/12/15 06:10:56;;;;;;;7.72;6.07;;;-2.20;48.40;;;;;;5028873;28;20032;-79
2022/12/15 06:13:41;;;;;;;7.30;6.20;;;-2.30;48.30;;;;;;5023850;28;20130;-79
2022/12/15 06:16:29;;;;;;;8.95;6.75;;;-2.20;48.50;;;;;;5028563;28;20116;-77
2022/12/15 06:19:14;;;;;;;9.07;6.20;;;-2.30;48.30;;;;;;5044405;28;20048;-79
2022/12/15 06:21:58;;;;;;;11.30;6.53;;;-2.30;48.30;;;;;;5018876;28;20040;-77
2022/12/15 06:24:43;;;;;;;9.98;6.78;;;-2.30;48.30;;;;;;5023322;28;20086;-77
2022/12/15 06:27:28;;;;;;;8.15;6.68;;;-2.30;48.30;;;;;;5025552;28;20036;-77
2022/12/15 06:30:13;;;;;;;10.10;7.00;;;-2.30;48.30;;;;;;5013185;28;20125;-78
2022/12/15 06:32:57;;;;;;;11.45;8.02;;;-2.40;48.10;;;;;;5022194;28;20124;-77
2022/12/15 06:35:41;;;;;;;9.38;7.15;;;-2.40;48.10;;;;;;4995300;28;20112;-77
2022/12/15 06:38:28;;;;;;;9.80;6.80;;;-2.40;48.10;;;;;;5023007;28;20219;-78
2022/12/15 06:41:15;;;;;;;9.82;6.38;;;-2.40;48.10;;;;;;5008591;28;20117;-76
2022/12/15 06:44:00;;;;;;;8.80;6.70;;;-2.40;48.10;;;;;;5017540;28;20127;-76
2022/12/15 06:46:45;;;;;;;10.52;7.35;;;-2.50;47.90;;;;;;5022869;28;20044;-75
2022/12/15 06:49:30;;;;;;;8.68;7.03;;;-2.40;48.20;;;;;;5022028;28;20091;-74
2022/12/15 06:52:15;;;;;;;12.82;7.07;;;-2.50;48.00;;;;;;5015794;28;20064;-76
2022/12/15 06:54:59;;;;;;;9.68;7.63;;;-2.50;47.90;;;;;;5020232;28;20036;-76
2022/12/15 06:57:47;;;;;;;11.05;7.63;;;-2.50;47.90;;;;;;5006900;28;20083;-78
2022/12/15 07:00:35;;;;;;;9.85;7.40;;;-2.40;48.10;;;;;;5022082;28;20091;-79
2022/12/15 07:03:19;;;;;;;9.15;7.55;;;-2.50;47.90;;;;;;5029788;28;20060;-84
2022/12/15 07:06:07;;;;;;;11.50;7.82;;;-2.50;47.90;;;;;;5024869;28;20044;-78
2022/12/15 07:08:55;;;;;;;9.55;7.13;;;-2.40;48.30;;;;;;5008775;28;20048;-80
2022/12/15 07:11:39;;;;;;;8.25;7.38;;;-2.50;48.00;;;;;;5013510;28;20485;-79
2022/12/15 07:14:25;;;;;;;9.93;7.00;;;-2.40;48.20;;;;;;5010051;28;20040;-78
2022/12/15 07:17:10;;;;;;;10.13;7.32;;;-2.40;48.10;;;;;;5021250;28;20559;-79
2022/12/15 07:19:54;;;;;;;10.50;7.65;;;-2.40;48.10;;;;;;5012893;28;20076;-76
2022/12/15 07:22:39;;;;;;;11.18;7.10;;;-2.50;47.90;;;;;;5016766;28;20040;-76
2022/12/15 07:25:23;;;;;;;9.55;8.25;;;-2.50;48.00;;;;;;5022355;28;20088;-77
2022/12/15 07:28:08;;;;;;;10.10;7.80;;;-2.60;47.80;;;;;;5007905;28;20044;-75
2022/12/15 07:30:52;;;;;;;7.85;6.95;;;-2.60;47.90;;;;;;5011260;28;20060;-77
2022/12/15 07:33:37;;;;;;;9.63;7.20;;;-2.60;47.90;;;;;;5030033;28;20175;-75
2022/12/15 07:36:21;;;;;;;9.13;6.93;;;-2.60;47.90;;;;;;5023827;28;20095;-79
2022/12/15 07:39:06;;;;;;;11.60;7.68;;;-2.70;47.80;;;;;;5021526;28;20111;-77
2022/12/15 07:41:51;;;;;;;9.60;7.45;;;-2.70;47.80;;;;;;5023694;28;20116;-76
2022/12/15 07:44:35;;;;;;;13.13;7.68;;;-2.70;47.80;;;;;;5006503;28;20048;-76
2022/12/15 07:47:20;;;;;;;8.80;6.80;;;-2.70;47.90;;;;;;5008048;28;20057;-76
2022/12/15 07:50:06;;;;;;;9.32;7.60;;;-2.80;47.80;;;;;;5021523;28;20080;-78
2022/12/15 07:52:50;;;;;;;9.50;7.72;;;-2.80;47.70;;;;;;5009031;28;20099;-78
2022/12/15 07:55:35;;;;;;;10.73;8.30;;;-2.80;47.80;;;;;;5023410;28;20124;-77
2022/12/15 07:58:19;;;;;;;11.68;7.47;;;-2.80;47.80;;;;;;5020637;28;20126;-78
2022/12/15 08:01:06;;;;;;;8.63;7.22;;;-2.80;47.80;;;;;;5023351;28;20055;-77
2022/12/15 08:03:50;;;;;;;11.82;8.05;;;-2.80;47.80;;;;;;5013816;28;20076;-78
2022/12/15 08:06:35;;;;;;;10.63;7.65;;;-2.80;47.80;;;;;;5023500;28;20044;-77
2022/12/15 08:09:20;;;;;;;12.15;8.07;;;-2.90;47.60;;;;;;5022104;28;20512;-78
2022/12/15 08:12:04;;;;;;;10.02;7.72;;;-2.80;48.30;;;;;;5023265;28;20455;-78
2022/12/15 08:14:49;;;;;;;7.90;7.10;;;-2.90;47.50;;;;;;5009995;28;20397;-77
2022/12/15 08:17:33;;;;;;;9.25;8.25;;;-2.90;47.50;;;;;;5016736;28;20048;-78
2022/12/15 08:20:18;;;;;;;10.05;7.97;;;-2.90;47.50;;;;;;5015775;28;20083;-78
2022/12/15 08:23:03;;;;;;;11.15;8.82;;;-2.90;47.50;;;;;;5020123;28;20099;-78
2022/12/15 08:25:47;;;;;;;10.02;7.95;;;-2.90;47.50;;;;;;5020685;28;20331;-77
2022/12/15 08:28:34;;;;;;;13.23;7.47;;;-2.90;47.50;;;;;;5021815;28;20098;-79
2022/12/15 08:31:21;;;;;;;8.60;7.75;;;-2.90;47.50;;;;;;5021108;28;20087;-78
2022/12/15 08:34:05;;;;;;;10.25;8.50;;;-2.90;47.40;;;;;;5021345;28;20492;-78
2022/12/15 08:36:50;;;;;;;10.35;8.05;;;-2.90;47.40;;;;;;5021944;28;20094;-79
2022/12/15 08:39:34;;;;;;;10.38;8.52;;;-2.90;47.40;;;;;;5020462;28;20202;-75
2022/12/15 08:42:18;;;;;;;9.63;8.15;;;-2.90;47.30;;;;;;5017153;28;20029;-76
2022/12/15 08:45:04;;;;;;;12.63;9.57;;;-2.90;47.30;;;;;;5020187;28;20113;-74
2022/12/15 08:47:49;;;;;;;10.00;8.82;;;-3.00;47.10;;;;;;5014343;28;20135;-73
2022/12/15 08:50:33;;;;;;;10.00;8.75;;;-2.90;47.30;;;;;;5009111;28;20084;-77
2022/12/15 08:53:18;;;;;;;10.48;9.10;;;-2.90;47.30;;;;;;5032348;28;20072;-76
2022/12/15 08:56:05;;;;;;;10.25;9.15;;;-2.90;47.20;;;;;;5012332;28;20247;-81
2022/12/15 08:58:53;;;;;;;10.48;8.73;;;-2.90;47.20;;;;;;5012567;28;20503;-79
2022/12/15 09:01:39;;;;;;;15.02;11.23;;;-2.90;47.20;;;;;;5012273;28;20822;-78
2022/12/15 09:04:23;;;;;;;14.25;9.80;;;-2.90;47.10;;;;;;5023097;28;20839;-78
2022/12/15 09:07:07;;;;;;;9.95;8.93;;;-2.80;47.30;;;;;;5008998;28;20084;-75
2022/12/15 09:09:52;;;;;;;12.05;9.55;;;-2.90;47.10;;;;;;5021538;28;20068;-76
2022/12/15 09:12:37;;;;;;;11.65;9.27;;;-2.90;47.00;;;;;;5022066;28;20095;-75
2022/12/15 09:15:21;;;;;;;13.18;10.27;;;-2.80;47.20;;;;;;5019446;28;20175;-75
2022/12/15 09:18:06;;;;;;;12.55;8.82;;;-2.80;47.10;;;;;;5018831;28;20094;-75
2022/12/15 09:20:52;;;;;;;11.82;8.93;;;-2.80;47.10;;;;;;5024369;28;20080;-85
2022/12/15 09:23:38;;;;;;;13.63;10.88;;;-2.80;47.10;;;;;;5019443;28;20083;-86
2022/12/15 09:26:23;;;;;;;13.32;9.90;;;-2.70;47.20;;;;;;5015495;28;20317;-75
2022/12/15 09:29:11;;;;;;;14.38;10.60;;;-2.70;47.20;;;;;;5023100;28;20124;-76
2022/12/15 09:31:55;;;;;;;10.90;9.07;;;-2.60;47.40;;;;;;5025647;28;20558;-78
2022/12/15 09:34:40;;;;;;;11.65;10.40;;;-2.40;47.60;;;;;;5012409;28;20516;-77
2022/12/15 09:37:24;;;;;;;11.77;9.80;;;-2.40;47.50;;;;;;4998528;28;20117;-76
2022/12/15 09:40:11;;;;;;;12.45;9.50;;;-2.30;47.60;;;;;;5009611;28;20115;-77
2022/12/15 09:42:55;;;;;;;12.02;9.25;;;-2.30;47.50;;;;;;5024374;28;20110;-75
2022/12/15 09:45:46;;;;;;;10.63;9.02;;;-2.30;47.60;;;;;;5025557;28;20037;-75
2022/12/15 09:48:38;;;;;;;11.63;8.45;;;-2.30;47.60;;;;;;5016683;28;20092;-75
2022/12/15 09:51:32;;;;;;;9.65;8.07;;;-2.30;47.60;;;;;;5018359;28;20504;-75
2022/12/15 09:54:17;;;;;;;9.73;8.27;;;-2.20;47.70;;;;;;5013161;28;20087;-75
2022/12/15 09:57:07;;;;;;;10.60;8.68;;;-2.20;47.80;;;;;;5023012;28;20128;-77
2022/12/15 10:00:10;;;;;;;12.35;7.57;;;-2.20;47.70;;;;;;5024705;28;20040;-76
2022/12/15 10:03:19;;;;;;;10.55;8.20;;;-2.20;47.80;;;;;;5018097;28;20099;-76
2022/12/15 10:06:11;;;;;;;10.82;8.73;;;-2.10;47.90;;;;;;5015392;28;20191;-76
2022/12/15 10:09:00;;;;;;;13.93;9.75;;;-2.10;47.90;;;;;;5017982;28;20467;-77
2022/12/15 10:11:55;;;;;;;11.52;9.43;;;-2.10;47.90;;;;;;5024538;28;20540;-78
2022/12/15 10:15:19;;;;;;;11.40;8.82;;;-2.10;47.90;;;;;;5023556;28;20472;-79
2022/12/15 10:18:27;;;;;;;11.45;9.05;;;-2.00;48.00;;;;;;5006214;28;20059;-79
2022/12/15 10:21:14;;;;;;;12.50;9.55;;;-2.00;48.00;;;;;;5009143;28;20044;-78
2022/12/15 10:24:11;;;;;;;12.85;8.20;;;-1.90;48.20;;;;;;5010463;28;20143;-79
2022/12/15 10:27:06;;;;;;;12.75;8.93;;;-1.90;48.20;;;;;;5024081;28;20053;-80
2022/12/15 10:30:08;;;;;;;10.98;7.13;;;-1.80;48.30;;;;;;5011116;28;20093;-78
2022/12/15 10:33:15;;;;;;;13.43;8.35;;;-1.80;48.20;;;;;;5001178;28;20120;-78
2022/12/15 10:35:59;;;;;;;11.32;8.20;;;-1.70;48.40;;;;;;5025224;28;20052;-79
2022/12/15 10:38:46;;;;;;;10.77;7.65;;;-1.70;48.30;;;;;;5024298;28;20138;-81
2022/12/15 10:41:32;;;;;;;14.05;8.90;;;-1.60;48.60;;;;;;5009362;28;20067;-80
2022/12/15 10:44:24;;;;;;;11.93;7.97;;;-1.50;48.80;;;;;;5016708;28;20117;-78
2022/12/15 10:47:25;;;;;;;12.75;8.45;;;-1.40;49.00;;;;;;5019762;28;20391;-79
2022/12/15 10:50:22;;;;;;;10.05;7.75;;;-1.30;49.00;;;;;;5021568;28;20044;-78
2022/12/15 10:53:08;;;;;;;9.50;7.38;;;-1.20;49.00;;;;;;5019770;28;20352;-79
2022/12/15 10:55:59;;;;;;;9.55;7.38;;;-1.10;49.10;;;;;;5024574;28;20125;-78
2022/12/15 10:58:50;;;;;;;9.55;6.60;;;-1.10;49.10;;;;;;5011390;28;20388;-77
2022/12/15 11:01:35;;;;;;;9.75;7.22;;;-1.00;49.30;;;;;;5009741;28;20434;-77
2022/12/15 11:04:28;;;;;;;10.30;6.85;;;-1.00;49.30;;;;;;5024274;28;20052;-78
2022/12/15 11:07:13;;;;;;;10.23;6.35;;;-0.90;49.50;;;;;;5023565;28;20480;-77
2022/12/15 11:10:08;;;;;;;11.95;7.40;;;-0.90;50.00;;;;;;5009295;28;20036;-77
2022/12/15 11:12:58;;;;;;;10.93;6.15;;;-0.90;49.50;;;;;;5009037;28;20044;-81
2022/12/15 11:15:45;;;;;;;8.95;6.38;;;-0.80;49.70;;;;;;5007517;28;20051;-82
2022/12/15 11:19:00;;;;;;;12.48;6.13;;;-0.80;49.70;;;;;;5019455;28;20091;-80
2022/12/15 11:21:52;;;;;;;10.88;6.10;;;-0.70;49.90;;;;;;5014496;28;20687;-78
2022/12/15 11:24:48;;;;;;;9.93;6.25;;;-0.70;49.90;;;;;;5008344;28;20052;-77
2022/12/15 11:27:37;;;;;;;9.18;5.50;;;-0.60;50.00;;;;;;5014668;28;20087;-77
2022/12/15 11:30:27;;;;;;;7.70;5.35;;;-0.60;50.00;;;;;;5009751;28;20048;-78
2022/12/15 11:33:13;;;;;;;6.75;5.13;;;-0.50;50.10;;;;;;5022157;28;20258;-79
2022/12/15 11:36:08;;;;;;;6.60;4.63;;;-0.50;50.10;;;;;;5012490;28;20040;-78
2022/12/15 11:39:00;;;;;;;8.57;4.57;;;-0.40;50.20;;;;;;5018064;28;20055;-78
2022/12/15 11:42:00;;;;;;;5.18;3.90;;;-0.30;50.30;;;;;;5023770;28;20424;-79
2022/12/15 11:45:01;;;;;;;5.45;4.13;;;-0.20;50.50;;;;;;5016106;28;20053;-80
2022/12/15 11:48:22;;;;;;;7.03;4.03;;;-0.20;50.40;;;;;;4980869;28;20453;-77
2022/12/15 11:51:26;;;;;;;7.95;5.00;;;0.00;51.10;;;;;;5021186;28;20059;-83
2022/12/15 11:54:17;;;;;;;;;;;0.20;51.30;;;;;;5017661;28;20124;-79
2022/12/15 11:57:10;;;;;;;5.07;3.85;;;0.50;51.50;;;;;;5011548;28;20335;-79
2022/12/15 12:00:03;;;;;;;5.00;3.47;;;0.60;51.10;;;;;;5012429;28;20571;-79
2022/12/15 12:03:10;;;;;;;6.43;3.63;;;0.70;51.10;;;;;;5009722;28;20644;-80
2022/12/15 12:06:05;;;;;;;7.50;3.78;;;0.80;51.40;;;;;;5010765;28;20092;-79
2022/12/15 12:09:01;;;;;;;6.72;4.03;;;0.80;51.40;;;;;;5008066;28;20080;-77
2022/12/15 12:11:53;;;;;;;6.30;4.18;;;0.90;51.70;;;;;;5013357;28;20075;-78
2022/12/15 12:14:46;;;;;;;6.85;3.50;;;0.90;51.70;;;;;;5005620;28;20044;-77
2022/12/15 12:17:41;;;;;;;7.80;4.20;;;0.90;51.80;;;;;;5019646;28;20048;-77
2022/12/15 12:20:44;;;;;;;6.18;3.50;;;0.90;51.80;;;;;;5011238;28;20363;-77
2022/12/15 12:23:48;;;;;;;7.25;3.15;;;0.90;51.90;;;;;;5015561;28;20095;-75
2022/12/15 12:26:59;;;;;;;4.55;3.05;;;1.00;52.10;;;;;;5014169;28;20563;-77
2022/12/15 12:29:50;;;;;;;8.30;3.67;;;1.00;52.10;;;;;;5013619;28;20049;-76
2022/12/15 12:33:05;;;;;;;5.65;3.03;;;1.10;52.30;;;;;;5023185;28;20414;-76
2022/12/15 12:36:08;;;;;;;6.18;3.20;;;1.10;52.30;;;;;;5007901;28;20083;-75
2022/12/15 12:38:55;;;;;;;5.07;3.05;;;1.10;52.30;;;;;;5022045;28;20141;-76
2022/12/15 12:42:01;;;;;;;6.20;3.38;;;1.20;52.40;;;;;;4996547;28;20103;-76
2022/12/15 12:44:45;;;;;;;6.50;3.70;;;1.20;52.40;;;;;;5015195;28;20048;-76
2022/12/15 12:47:36;;;;;;;5.50;3.63;;;1.20;52.40;;;;;;4974113;28;20106;-78
2022/12/15 12:50:27;;;;;;;7.90;3.25;;;1.20;52.40;;;;;;4976378;28;20100;-78
2022/12/15 12:53:41;;;;;;;8.65;3.75;;;1.30;52.60;;;;;;4981922;28;20544;-79
2022/12/15 12:56:39;;;;;;;;;;;1.30;52.60;;;;;;4976638;28;20096;-78
2022/12/15 12:59:29;;;;;;;6.25;3.83;;;1.30;52.50;;;;;;4982501;28;19928;-79
2022/12/15 13:02:15;;;;;;;4.55;3.38;;;1.30;52.40;;;;;;4980409;28;20118;-78
2022/12/15 13:05:03;;;;;;;7.75;4.03;;;1.30;52.50;;;;;;4967758;28;20567;-79
2022/12/15 13:07:55;;;;;;;6.32;3.63;;;1.40;52.60;;;;;;4983152;28;20042;-78
2022/12/15 13:10:44;;;;;;;9.07;4.50;;;1.40;52.60;;;;;;4979115;28;20093;-76
2022/12/15 13:13:31;;;;;;;8.13;3.90;;;1.40;52.70;;;;;;4980792;28;20486;-78
2022/12/15 13:16:24;;;;;;;4.72;3.20;;;1.40;52.60;;;;;;4982992;28;20053;-78
2022/12/15 13:19:08;;;;;;;5.17;3.90;;;1.40;52.70;;;;;;4980646;28;20133;-78
2022/12/15 13:21:54;;;;;;;5.07;3.55;;;1.50;52.80;;;;;;4973950;28;20045;-78
2022/12/15 13:24:46;;;;;;;5.28;3.63;;;1.50;52.80;;;;;;4982201;28;20359;-77
2022/12/15 13:27:35;;;;;;;6.43;3.35;;;1.50;52.80;;;;;;4982248;28;20504;-79
2022/12/15 13:30:20;;;;;;;7.45;3.97;;;1.50;52.80;;;;;;4977810;28;20045;-79
2022/12/15 13:33:17;;;;;;;6.60;3.60;;;1.50;52.70;;;;;;4978747;28;20034;-77
2022/12/15 13:36:01;;;;;;;5.05;3.83;;;1.60;52.90;;;;;;4972138;28;20129;-76
2022/12/15 13:38:54;;;;;;;10.43;3.75;;;1.60;52.80;;;;;;4979857;28;20054;-76
2022/12/15 13:42:02;;;;;;;6.38;4.20;;;1.70;52.90;;;;;;4979439;28;20069;-77
2022/12/15 13:44:51;;;;;;;6.50;3.67;;;1.70;52.90;;;;;;4976474;28;20201;-82
2022/12/15 13:47:36;;;;;;;8.57;3.80;;;1.70;52.80;;;;;;4999768;28;20114;-80
2022/12/15 13:51:12;;;;;;;5.13;3.20;;;1.70;52.80;;;;;;5021979;28;20053;-77
2022/12/15 13:54:02;;;;;;;5.70;3.28;;;1.80;52.90;;;;;;4988808;28;20397;-77
2022/12/15 13:57:03;;;;;;;6.50;3.58;;;1.90;53.10;;;;;;5016529;28;20064;-77
2022/12/15 13:59:49;;;;;;;5.90;3.85;;;2.00;53.70;;;;;;5016727;28;20109;-76
2022/12/15 14:02:35;;;;;;;9.88;3.53;;;2.20;54.10;;;;;;5021920;28;20515;-76
2022/12/15 14:05:22;;;;;;;4.78;3.17;;;2.30;54.00;;;;;;5021200;28;20646;-76
2022/12/15 14:08:12;;;;;;;10.90;4.00;;;2.40;54.60;;;;;;5012787;28;20507;-76
2022/12/15 14:10:59;;;;;;;6.38;3.00;;;2.50;54.10;;;;;;5024961;28;20064;-76
2022/12/15 14:13:43;;;;;;;5.97;3.22;;;2.60;54.20;;;;;;5023743;28;20429;-75
2022/12/15 14:16:32;;;;;;;6.45;3.15;;;2.60;54.20;;;;;;5015835;28;20099;-76
2022/12/15 14:19:17;;;;;;;5.32;2.60;;;2.50;54.00;;;;;;5024512;28;20044;-76
2022/12/15 14:22:01;;;;;;;4.88;3.05;;;2.50;54.00;;;;;;5017235;28;20063;-76
2022/12/15 14:24:47;;;;;;;6.82;2.97;;;2.60;54.20;;;;;;5018188;28;20072;-76
2022/12/15 14:27:32;;;;;;;5.00;2.85;;;2.50;54.00;;;;;;5022181;28;20048;-76
2022/12/15 14:30:18;;;;;;;7.50;3.38;;;2.50;54.10;;;;;;5023934;28;20099;-76
2022/12/15 14:33:15;;;;;;;6.13;2.80;;;2.50;54.10;;;;;;5021699;28;20055;-77
2022/12/15 14:36:00;;;;;;;6.93;2.85;;;2.50;54.10;;;;;;5022505;28;20331;-78
2022/12/15 14:38:58;;;;;;;5.30;2.97;;;2.50;54.10;;;;;;5024752;28;20055;-78
2022/12/15 14:41:46;;;;;;;4.93;3.50;;;2.50;54.20;;;;;;5009944;28;20512;-77
2022/12/15 14:44:42;;;;;;;3.80;2.58;;;2.40;54.00;;;;;;5023943;28;20070;-76
2022/12/15 14:47:34;;;;;;;5.32;3.10;;;2.40;54.00;;;;;;4993590;28;20107;-75
2022/12/15 14:50:22;;;;;;;6.90;3.20;;;2.40;54.00;;;;;;5010275;28;20524;-77
2022/12/15 14:53:16;;;;;;;6.78;3.20;;;2.40;54.00;;;;;;5025976;28;20512;-77
2022/12/15 14:56:19;;;;;;;3.35;2.63;;;2.40;54.10;;;;;;5024820;28;20048;-79
2022/12/15 14:59:24;;;;;;;;;;;2.40;54.10;;;;;;5014811;28;20053;-77
2022/12/15 15:02:27;;;;;;;4.32;2.60;;;2.30;53.90;;;;;;5004236;28;19920;-78
2022/12/15 15:05:26;;;;;;;4.75;3.40;;;2.30;53.80;;;;;;5014003;28;20063;-76
2022/12/15 15:08:25;;;;;;;3.67;2.65;;;2.30;53.80;;;;;;5025107;28;20853;-77
2022/12/15 15:11:32;;;;;;;6.45;2.45;;;2.30;53.80;;;;;;5012633;28;20048;-76
2022/12/15 15:14:32;;;;;;;7.82;3.15;;;2.30;54.40;;;;;;5021838;28;20396;-76
2022/12/15 15:17:26;;;;;;;4.13;2.80;;;2.30;53.80;;;;;;5020726;28;20065;-79
2022/12/15 15:20:28;;;;;;;4.60;2.35;;;2.30;53.80;;;;;;5023203;28;20044;-79
2022/12/15 15:23:16;;;;;;;3.25;2.60;;;2.20;53.60;;;;;;5012320;28;20515;-79
2022/12/15 15:26:04;;;;;;;6.82;2.72;;;2.20;53.60;;;;;;5023786;28;20052;-78
2022/12/15 15:28:48;;;;;;;4.40;3.03;;;2.20;54.20;;;;;;5016497;28;20094;-77
2022/12/15 15:31:37;;;;;;;5.13;3.03;;;2.20;53.70;;;;;;5006188;28;20515;-78
2022/12/15 15:34:22;;;;;;;6.53;2.88;;;2.20;53.70;;;;;;5013776;28;20464;-79
2022/12/15 15:37:15;;;;;;;5.18;3.30;;;2.10;53.50;;;;;;5017459;28;20095;-79
2022/12/15 15:39:59;;;;;;;4.57;2.88;;;2.10;53.60;;;;;;5016854;28;20048;-81
2022/12/15 15:42:45;;;;;;;5.72;2.80;;;2.00;53.50;;;;;;5018908;28;20509;-81
2022/12/15 15:45:30;;;;;;;4.65;3.08;;;2.00;53.50;;;;;;5017141;28;20493;-80
2022/12/15 15:48:25;;;;;;;5.55;2.72;;;1.90;53.40;;;;;;5012357;28;20141;-81
2022/12/15 15:51:10;;;;;;;6.15;3.38;;;1.90;53.40;;;;;;5016445;28;20057;-81
2022/12/15 15:53:58;;;;;;;5.97;2.88;;;1.80;53.40;;;;;;5008265;28;20087;-78
2022/12/15 15:56:43;;;;;;;5.95;3.50;;;1.80;53.90;;;;;;5021521;28;20044;-79
2022/12/15 15:59:27;;;;;;;5.03;3.35;;;1.80;53.40;;;;;;5026583;28;20215;-78
2022/12/15 16:02:13;;;;;;;6.65;3.05;;;1.70;53.30;;;;;;5011693;28;20083;-79
2022/12/15 16:04:58;;;;;;;7.22;3.42;;;1.70;53.40;;;;;;5022572;28;20091;-79
2022/12/15 16:07:44;;;;;;;6.53;3.92;;;1.60;53.20;;;;;;5017877;28;20103;-77
2022/12/15 16:10:29;;;;;;;5.07;3.42;;;1.60;53.20;;;;;;5019656;28;20083;-79
2022/12/15 16:13:18;;;;;;;7.32;3.67;;;1.60;53.30;;;;;;5020083;28;20064;-78
2022/12/15 16:16:04;;;;;;;6.13;3.67;;;1.50;53.10;;;;;;5006467;28;20573;-77
2022/12/15 16:18:48;;;;;;;4.93;3.28;;;1.50;53.20;;;;;;5016455;28;20561;-79
2022/12/15 16:21:34;;;;;;;4.95;3.88;;;1.50;53.20;;;;;;5017761;28;20413;-78
2022/12/15 16:24:18;;;;;;;7.50;3.72;;;1.40;53.00;;;;;;5022878;28;20136;-78
2022/12/15 16:27:03;;;;;;;6.47;4.32;;;1.40;53.10;;;;;;5018080;28;20107;-76
2022/12/15 16:29:48;;;;;;;6.78;3.72;;;1.30;53.00;;;;;;5021405;28;20509;-76
2022/12/15 16:32:33;;;;;;;6.53;4.15;;;1.30;53.00;;;;;;5009285;28;20092;-79
2022/12/15 16:35:18;;;;;;;6.65;4.22;;;1.30;53.00;;;;;;5015766;28;20405;-79
2022/12/15 16:38:04;;;;;;;7.40;4.47;;;1.20;52.90;;;;;;5023230;28;20055;-79
2022/12/15 16:40:49;;;;;;;7.03;4.30;;;1.20;53.00;;;;;;5009968;28;20083;-81
2022/12/15 16:43:34;;;;;;;6.90;4.22;;;1.10;52.80;;;;;;5005827;28;20044;-81
2022/12/15 16:46:19;;;;;;;9.30;4.90;;;1.10;52.90;;;;;;5007767;28;20048;-80
2022/12/15 16:49:04;;;;;;;11.60;6.40;;;1.00;52.80;;;;;;5007747;28;20056;-81
2022/12/15 16:51:52;;;;;;;8.40;4.68;;;1.00;52.80;;;;;;5021584;28;20047;-80
2022/12/15 16:54:37;;;;;;;9.18;5.32;;;0.90;52.70;;;;;;5017816;28;20048;-80
2022/12/15 16:57:21;;;;;;;8.43;4.97;;;0.90;52.80;;;;;;5016699;28;20048;-80
2022/12/15 17:00:36;;;;;;;12.23;6.03;;;0.90;52.80;;;;;;5021005;28;20095;-79
2022/12/15 17:03:30;;;;;;;14.07;6.88;;;0.80;52.60;;;;;;5000284;28;20508;-79
2022/12/15 17:06:16;;;;;;;11.90;7.65;;;0.80;52.70;;;;;;5017703;28;20869;-78
2022/12/15 17:09:01;;;;;;;11.77;6.97;;;0.70;52.50;;;;;;5021718;28;20064;-78